CheckWX is a tool to help pilots better visualize weather data.  It is not intended as a substitute for an official pre-flight weather briefing.

05:44:45 UTC

ESMQ METAR
Kalmar Airport
Sweden
Current

25 mins ago

ESMQ 200520Z 28010KT CAVOK 04/01 Q1006
Observed
Feb-20 @ 05:20 UTC
Wind
  • 280° at 10 KTS
Visibility
10,000+ meters
Flight Rules
VFR
Cloud Levels
  • Clear skies
Temperature
C / 39°F
Dewpoint
C / 34°F
Humidity
81%
Altimeter
29.7" Hg
Pressure
1005.92 hPa
Previous

55 mins ago

ESMQ 200450Z 28010KT CAVOK 04/01 Q1005
Observed
Feb-20 @ 04:50 UTC
Wind
  • 280° at 10 KTS
Visibility
10,000+ meters
Flight Rules
VFR
Cloud Levels
  • Clear skies
Temperature
C / 39°F
Dewpoint
C / 34°F
Humidity
81%
Altimeter
29.68" Hg
Pressure
1004.92 hPa
Previous

1 hour ago

ESMQ 200420Z AUTO 27013KT 9999 NCD 04/01 Q1005
Observed
Feb-20 @ 04:20 UTC
Wind
  • 270° at 13 KTS
Visibility
10,000+ meters
Flight Rules
VFR
Cloud Levels
  • Clear skies
Temperature
C / 39°F
Dewpoint
C / 34°F
Humidity
81%
Altimeter
29.68" Hg
Pressure
1004.92 hPa